Etusivu
METAR-TAF:

METAR-TAF

Lentoasemat :

Alpnach, Sveitsi

Leveyspiiri: 46-56-19N, Pituuspiiri: 8-17-03E, korkeus merenpinnasta: 440 m

Tämänhetkinen sää

Tämä raportti tehtiin 27 minuuttia sitten, kello 04.20 UTC
Tuuli 9 kn pohjoisesta/koillisesta, vaihdellen pohjoisen/luoteen ja idän välillä
Lämpötila 3°C
Kosteus 65%
Ilmanpaine 1029 hPa
Näkyvyys 10 km tai enemmän
Hajanaisia pilviä 2800 ft:n korkeudessa
Hajonneita pilviä 3600 ft:n korkeudessa
Pilvistä 6600 ft:n korkeudessa

METAR: LSMA 190420Z AUTO 03009KT 330V080 9999NDV SCT028 BKN036 OVC066 03/M03 Q1029 RMK

Aika: 05:47 (04:47 UTC)


TAF: puuttuu

Säähavainnot ja -ennusteet yli 4000 lentoasemalta (METAR- ja TAF-raportit).

Käytössä olevat sääasemat on merkitty karttaan keltaisilla ja punaisilla pisteillä.

Aseta hiiri pisteen päälle nähdäksesi sääaseman nimen.

Klikkaa sitten nähdäksesi säähavainnot ja -ennusteet.

Kartan vaihtaminen: klikkaa mustalla rastilla varustettuja vihreitä pisteitä, niin voit zoomata sisään; viivalla varustettua vihreää pistettä, niin voit zoomata ulos tai vihreitä nuolia, niin pääset viereisille kartoille.


METAR-TAF: